Time;durP1;ratioP1;P1;durP2;ratioP2;P2;SDS_P1;SDS_P2;PMS_P1;PMS_P2;Temp;Humidity;BMP_temperature;BMP_pressure;BME280_temperature;BME280_humidity;BME280_pressure;Samples;Min_cycle;Max_cycle;Signal;HPM_P1;HPM_P2
2022/03/09 00:00:43;;;;;;;41.20;33.70;;;2.20;1.00;;;;;;6302677;22;20192;-77
2022/03/09 00:03:15;;;;;;;42.05;33.47;;;2.10;1.00;;;;;;6301903;22;20199;-75
2022/03/09 00:05:43;;;;;;;37.95;31.02;;;2.10;1.00;;;;;;6320583;22;20203;-77
2022/03/09 00:08:10;;;;;;;41.13;34.47;;;2.00;1.00;;;;;;6323011;22;20186;-75
2022/03/09 00:10:37;;;;;;;36.42;30.17;;;2.00;1.00;;;;;;6323788;22;20192;-75
2022/03/09 00:13:04;;;;;;;31.35;27.88;;;2.00;1.00;;;;;;6322119;22;20448;-77
2022/03/09 00:15:32;;;;;;;33.83;28.05;;;2.00;1.00;;;;;;6319608;22;20198;-75
2022/03/09 00:17:59;;;;;;;34.42;27.65;;;2.00;1.00;;;;;;6321599;22;20219;-74
2022/03/09 00:20:26;;;;;;;31.60;27.35;;;2.00;1.00;;;;;;6314669;22;20191;-75
2022/03/09 00:22:52;;;;;;;34.08;28.48;;;2.00;1.00;;;;;;6305162;22;20235;-78
2022/03/09 00:25:19;;;;;;;30.90;26.17;;;2.00;1.00;;;;;;6301000;22;20195;-76
2022/03/09 00:27:46;;;;;;;32.28;28.83;;;2.00;1.00;;;;;;6303137;22;20199;-77
2022/03/09 00:30:13;;;;;;;30.92;27.63;;;2.00;1.00;;;;;;6305148;22;20198;-76
2022/03/09 00:32:41;;;;;;;31.45;27.35;;;1.90;1.00;;;;;;6302854;22;20265;-76
2022/03/09 00:35:09;;;;;;;35.13;29.45;;;1.90;1.00;;;;;;6302258;22;20204;-77
2022/03/09 00:37:38;;;;;;;31.00;27.13;;;1.90;1.00;;;;;;6303255;22;20269;-78
2022/03/09 00:40:06;;;;;;;34.40;28.95;;;1.90;1.00;;;;;;6308675;22;20273;-76
2022/03/09 00:42:36;;;;;;;33.35;28.40;;;1.80;1.00;;;;;;6308042;22;20188;-76
2022/03/09 00:45:03;;;;;;;31.23;27.98;;;1.80;1.00;;;;;;6303085;22;20199;-78
2022/03/09 00:47:30;;;;;;;31.15;27.10;;;1.70;1.00;;;;;;6303243;22;20891;-77
2022/03/09 00:49:58;;;;;;;36.17;30.75;;;1.70;1.00;;;;;;6308731;22;20184;-74
2022/03/09 00:52:25;;;;;;;33.88;28.10;;;1.60;1.00;;;;;;6324897;22;20271;-76
2022/03/09 00:54:51;;;;;;;33.83;25.25;;;1.60;1.00;;;;;;6313571;22;20540;-77
2022/03/09 00:57:18;;;;;;;31.70;25.48;;;1.50;1.00;;;;;;6307660;22;20271;-77
2022/03/09 00:59:45;;;;;;;28.67;25.48;;;1.60;1.00;;;;;;6301488;22;20195;-76
2022/03/09 01:02:12;;;;;;;30.27;25.55;;;1.60;1.00;;;;;;6303190;22;20283;-77
2022/03/09 01:04:38;;;;;;;30.80;24.58;;;1.50;1.00;;;;;;6302398;22;21100;-76
2022/03/09 01:07:07;;;;;;;30.80;26.40;;;1.50;1.00;;;;;;6303279;22;20278;-78
2022/03/09 01:09:33;;;;;;;27.63;24.33;;;1.50;1.00;;;;;;6304167;22;20195;-76
2022/03/09 01:12:03;;;;;;;29.35;24.35;;;1.40;1.00;;;;;;6301550;22;20196;-78
2022/03/09 01:14:30;;;;;;;29.67;23.00;;;1.30;1.00;;;;;;6302297;22;20270;-76
2022/03/09 01:16:57;;;;;;;33.65;26.23;;;1.30;1.00;;;;;;6295773;22;20270;-77
2022/03/09 01:19:24;;;;;;;31.23;26.95;;;1.30;1.00;;;;;;6303627;22;20196;-78
2022/03/09 01:21:51;;;;;;;27.73;23.60;;;1.30;1.00;;;;;;6301717;22;20219;-77
2022/03/09 01:24:19;;;;;;;28.65;25.42;;;1.20;1.00;;;;;;6302815;22;20202;-76
2022/03/09 01:26:45;;;;;;;28.20;25.30;;;1.20;1.00;;;;;;6298404;22;20432;-77
2022/03/09 01:29:12;;;;;;;29.73;25.85;;;1.10;1.00;;;;;;6302201;22;20187;-76
2022/03/09 01:31:39;;;;;;;34.13;26.48;;;1.10;1.00;;;;;;6300074;22;20192;-76
2022/03/09 01:34:05;;;;;;;29.55;25.58;;;1.10;1.00;;;;;;6301256;22;20219;-76
2022/03/09 01:36:32;;;;;;;30.15;27.02;;;1.00;1.00;;;;;;6303355;22;20191;-76
2022/03/09 01:38:59;;;;;;;29.65;26.55;;;1.00;1.00;;;;;;6301214;22;20200;-77
2022/03/09 01:41:27;;;;;;;33.40;25.90;;;1.00;1.00;;;;;;6303142;22;21053;-76
2022/03/09 01:44:08;;;;;;;31.02;26.10;;;1.00;1.00;;;;;;6308082;22;20321;-77
2022/03/09 01:46:35;;;;;;;28.33;25.00;;;1.00;1.00;;;;;;6303189;22;20562;-77
2022/03/09 01:49:03;;;;;;;29.85;26.85;;;1.00;1.00;;;;;;6301552;22;20191;-76
2022/03/09 01:51:31;;;;;;;30.77;25.83;;;1.10;1.00;;;;;;6302680;22;20207;-76
2022/03/09 01:53:58;;;;;;;29.48;26.13;;;1.10;1.00;;;;;;6299170;22;20203;-77
2022/03/09 01:56:27;;;;;;;29.02;24.73;;;1.00;1.00;;;;;;6302057;22;20199;-75
2022/03/09 01:58:54;;;;;;;28.27;24.83;;;1.00;1.00;;;;;;6299293;22;20234;-76
2022/03/09 02:01:21;;;;;;;30.55;26.90;;;1.00;1.00;;;;;;6301990;22;20199;-77
2022/03/09 02:03:47;;;;;;;27.75;24.85;;;0.90;1.00;;;;;;6301298;22;20367;-75
2022/03/09 02:06:14;;;;;;;27.13;24.30;;;0.90;1.00;;;;;;6300001;22;20196;-76
2022/03/09 02:11:27;;;;;;;30.98;26.90;;;1.00;1.00;;;;;;6302370;22;20188;-75
2022/03/09 02:13:54;;;;;;;32.58;27.77;;;0.90;1.00;;;;;;6300462;22;20222;-76
2022/03/09 02:16:21;;;;;;;36.20;26.70;;;0.90;1.00;;;;;;6300503;22;20200;-76
2022/03/09 02:18:47;;;;;;;32.70;28.48;;;0.90;1.00;;;;;;6302789;22;20277;-77
2022/03/09 02:21:16;;;;;;;33.70;28.60;;;0.90;1.00;;;;;;6300940;22;20188;-76
2022/03/09 02:23:46;;;;;;;34.95;29.38;;;1.00;1.00;;;;;;6301449;22;20192;-77
2022/03/09 02:26:12;;;;;;;32.05;27.15;;;1.00;1.00;;;;;;6303122;22;21174;-76
2022/03/09 02:28:47;;;;;;;29.70;26.30;;;1.00;1.00;;;;;;6299787;22;20188;-76
2022/03/09 02:31:14;;;;;;;32.25;27.33;;;0.90;1.00;;;;;;6303448;22;20186;-76
2022/03/09 02:33:44;;;;;;;30.48;26.45;;;0.90;1.00;;;;;;6267755;22;20560;-76
2022/03/09 02:36:12;;;;;;;31.60;26.55;;;0.90;1.00;;;;;;6270839;22;20201;-76
2022/03/09 02:38:38;;;;;;;37.47;26.95;;;0.90;1.00;;;;;;6272305;22;20282;-76
2022/03/09 02:41:06;;;;;;;30.38;27.15;;;0.90;1.00;;;;;;6270934;22;20263;-76
2022/03/09 02:43:34;;;;;;;29.65;26.42;;;0.90;1.00;;;;;;6270195;22;20196;-76
2022/03/09 02:46:00;;;;;;;35.53;26.38;;;0.90;1.00;;;;;;6272123;22;20214;-76
2022/03/09 02:48:27;;;;;;;34.78;28.75;;;0.90;1.00;;;;;;6269633;22;20196;-76
2022/03/09 02:50:54;;;;;;;32.72;28.23;;;0.80;1.00;;;;;;6272556;22;20187;-77
2022/03/09 02:53:20;;;;;;;31.20;25.33;;;0.80;1.00;;;;;;6270723;22;20199;-76
2022/03/09 02:55:47;;;;;;;32.28;26.83;;;0.90;1.00;;;;;;6271691;22;20195;-77
2022/03/09 02:58:15;;;;;;;33.13;27.10;;;0.90;1.00;;;;;;6272964;22;20566;-77
2022/03/09 03:00:42;;;;;;;30.40;26.83;;;0.90;1.00;;;;;;6270504;22;20188;-77
2022/03/09 03:03:09;;;;;;;29.25;26.15;;;0.90;1.00;;;;;;6266275;22;20514;-78
2022/03/09 03:05:35;;;;;;;29.42;25.90;;;1.00;1.00;;;;;;6272501;22;20193;-78
2022/03/09 03:08:02;;;;;;;29.35;25.77;;;0.90;1.00;;;;;;6270372;22;20219;-78
2022/03/09 03:10:28;;;;;;;29.08;25.77;;;0.90;1.00;;;;;;6277141;22;20330;-78
2022/03/09 03:12:56;;;;;;;31.13;27.77;;;0.80;1.00;;;;;;6279758;22;20199;-78
2022/03/09 03:15:24;;;;;;;30.05;26.50;;;0.80;1.00;;;;;;6271189;22;20188;-78
2022/03/09 03:17:51;;;;;;;32.75;28.35;;;0.90;1.00;;;;;;6271957;22;20247;-78
2022/03/09 03:20:17;;;;;;;31.27;27.95;;;0.80;1.00;;;;;;6272819;22;20188;-77
2022/03/09 03:22:44;;;;;;;30.15;26.80;;;0.70;1.00;;;;;;6270847;22;20196;-77
2022/03/09 03:25:11;;;;;;;34.05;27.73;;;0.70;1.00;;;;;;6273690;22;20299;-77
2022/03/09 03:27:37;;;;;;;32.65;28.02;;;0.60;1.00;;;;;;6270753;22;20185;-78
2022/03/09 03:30:05;;;;;;;29.75;26.58;;;0.60;1.00;;;;;;6271392;22;20364;-76
2022/03/09 03:32:33;;;;;;;33.22;27.83;;;0.60;1.00;;;;;;6272745;22;20192;-76
2022/03/09 03:35:00;;;;;;;32.78;26.15;;;0.50;1.00;;;;;;6269560;22;21149;-77
2022/03/09 03:37:27;;;;;;;34.83;28.77;;;0.60;1.00;;;;;;6271050;22;20263;-77
2022/03/09 03:39:54;;;;;;;34.75;28.50;;;0.60;1.00;;;;;;6272511;22;20235;-78
2022/03/09 03:42:21;;;;;;;35.47;28.20;;;0.60;1.00;;;;;;6273733;22;20197;-78
2022/03/09 03:44:48;;;;;;;33.85;28.70;;;0.60;1.00;;;;;;6272961;22;20744;-77
2022/03/09 03:47:15;;;;;;;30.75;27.33;;;0.60;1.00;;;;;;6276878;22;20248;-77
2022/03/09 03:49:43;;;;;;;33.88;27.25;;;0.60;1.00;;;;;;6274845;22;20250;-77
2022/03/09 03:52:10;;;;;;;34.85;28.02;;;0.50;1.00;;;;;;6297204;22;20204;-77
2022/03/09 03:54:36;;;;;;;33.60;28.70;;;0.50;1.00;;;;;;6297039;22;20184;-77
2022/03/09 03:57:03;;;;;;;32.03;27.77;;;0.50;1.00;;;;;;6296832;22;20202;-76
2022/03/09 03:59:30;;;;;;;33.65;27.92;;;0.40;1.00;;;;;;6299040;22;20227;-77
2022/03/09 04:01:57;;;;;;;33.72;28.48;;;0.40;1.00;;;;;;6293180;22;20180;-77
2022/03/09 04:04:24;;;;;;;36.28;28.80;;;0.40;1.00;;;;;;6296112;22;20188;-76
2022/03/09 04:06:52;;;;;;;32.95;28.33;;;0.50;1.00;;;;;;6287026;22;20199;-78
2022/03/09 04:09:18;;;;;;;34.65;28.75;;;0.50;1.00;;;;;;6274711;22;20271;-78
2022/03/09 04:11:45;;;;;;;32.15;27.50;;;0.50;1.00;;;;;;6274020;22;20201;-78
2022/03/09 04:14:12;;;;;;;33.15;27.77;;;0.50;1.00;;;;;;6272304;22;20248;-77
2022/03/09 04:16:39;;;;;;;34.80;30.80;;;0.50;1.00;;;;;;6274612;22;20288;-78
2022/03/09 04:19:06;;;;;;;34.50;28.63;;;0.50;1.00;;;;;;6275085;22;20718;-77
2022/03/09 04:21:33;;;;;;;37.55;28.70;;;0.50;1.00;;;;;;6274989;22;20230;-77
2022/03/09 04:24:01;;;;;;;32.50;27.55;;;0.50;1.00;;;;;;6280575;22;20252;-76
2022/03/09 04:26:27;;;;;;;33.92;28.23;;;0.40;1.00;;;;;;6283931;22;20192;-77
2022/03/09 04:28:54;;;;;;;32.55;28.85;;;0.40;1.00;;;;;;6283669;22;20208;-77
2022/03/09 04:31:21;;;;;;;36.33;29.20;;;0.40;1.00;;;;;;6288005;22;20192;-77
2022/03/09 04:33:47;;;;;;;36.78;30.48;;;0.40;1.00;;;;;;6286865;22;20252;-78
2022/03/09 04:36:14;;;;;;;34.63;29.77;;;0.40;1.00;;;;;;6277707;22;20200;-78
2022/03/09 04:38:43;;;;;;;41.38;32.35;;;0.40;1.00;;;;;;6272318;22;21068;-79
2022/03/09 04:41:11;;;;;;;34.90;30.33;;;0.40;1.00;;;;;;6272718;22;20196;-76
2022/03/09 04:43:38;;;;;;;42.60;31.95;;;0.30;1.00;;;;;;6271065;22;20188;-78
2022/03/09 04:46:05;;;;;;;35.88;32.05;;;0.30;1.00;;;;;;6275451;22;20192;-76
2022/03/09 04:48:31;;;;;;;38.10;33.30;;;0.30;1.00;;;;;;6272895;22;21082;-77
2022/03/09 04:51:00;;;;;;;36.45;32.22;;;0.30;1.00;;;;;;6272869;22;20192;-77
2022/03/09 04:53:26;;;;;;;38.53;32.92;;;0.30;1.00;;;;;;6273687;22;20243;-77
2022/03/09 04:55:54;;;;;;;37.10;31.55;;;0.40;1.00;;;;;;6269856;22;20202;-78
2022/03/09 04:58:22;;;;;;;36.53;30.95;;;0.30;1.00;;;;;;6273838;22;20189;-78
2022/03/09 05:00:52;;;;;;;39.92;33.08;;;0.40;1.00;;;;;;6272813;22;20180;-77
2022/03/09 05:03:19;;;;;;;44.50;32.90;;;0.40;1.00;;;;;;6265413;22;20200;-78
2022/03/09 05:05:46;;;;;;;41.72;31.83;;;0.30;1.00;;;;;;6268705;22;20204;-77
2022/03/09 05:08:13;;;;;;;37.28;31.15;;;0.40;1.00;;;;;;6271183;22;20195;-77
2022/03/09 05:10:40;;;;;;;41.58;33.45;;;0.40;1.00;;;;;;6272183;22;20945;-77
2022/03/09 05:13:10;;;;;;;60.38;38.22;;;0.30;1.00;;;;;;6267941;22;20299;-76
2022/03/09 05:15:38;;;;;;;44.75;35.45;;;0.30;1.00;;;;;;6275862;22;20723;-77
2022/03/09 05:18:05;;;;;;;37.53;30.95;;;0.30;1.00;;;;;;6273166;22;20195;-78
2022/03/09 05:20:31;;;;;;;39.95;31.70;;;0.40;1.00;;;;;;6272419;22;20216;-78
2022/03/09 05:22:58;;;;;;;42.28;31.33;;;0.30;1.00;;;;;;6267156;22;20251;-77
2022/03/09 05:25:25;;;;;;;37.40;30.50;;;0.30;1.00;;;;;;6274780;22;20214;-78
2022/03/09 05:27:52;;;;;;;41.13;33.40;;;0.30;1.00;;;;;;6277079;22;20255;-77
2022/03/09 05:30:18;;;;;;;40.10;30.90;;;0.40;1.00;;;;;;6277117;22;20199;-79
2022/03/09 05:32:46;;;;;;;40.72;32.13;;;0.30;1.00;;;;;;6274496;22;20223;-79
2022/03/09 05:35:13;;;;;;;41.95;35.13;;;0.40;1.00;;;;;;6275920;22;20196;-78
2022/03/09 05:37:42;;;;;;;36.08;30.45;;;0.40;1.00;;;;;;6275375;22;20270;-78
2022/03/09 05:40:09;;;;;;;36.10;31.30;;;0.40;1.00;;;;;;6274607;22;20215;-78
2022/03/09 05:42:37;;;;;;;39.80;31.70;;;0.40;1.00;;;;;;6276126;22;20188;-78
2022/03/09 05:45:04;;;;;;;36.45;30.45;;;0.50;1.00;;;;;;6275109;22;20271;-79
2022/03/09 05:47:32;;;;;;;45.65;33.38;;;0.50;1.00;;;;;;6276356;22;20184;-78
2022/03/09 05:50:00;;;;;;;39.25;32.53;;;0.50;1.00;;;;;;6277799;22;20188;-77
2022/03/09 05:52:27;;;;;;;40.15;32.63;;;0.50;1.00;;;;;;6278452;22;20259;-77
2022/03/09 05:54:53;;;;;;;48.13;32.28;;;0.50;1.00;;;;;;6279717;22;21074;-78
2022/03/09 05:57:21;;;;;;;42.13;31.45;;;0.60;1.00;;;;;;6283421;22;20192;-77
2022/03/09 05:59:49;;;;;;;35.92;31.48;;;0.60;1.00;;;;;;6276063;22;20212;-76
2022/03/09 06:02:15;;;;;;;37.97;31.58;;;0.60;1.00;;;;;;6279277;22;20317;-77
2022/03/09 06:04:42;;;;;;;37.42;30.77;;;0.70;1.00;;;;;;6284156;22;20189;-82
2022/03/09 06:07:11;;;;;;;41.38;29.58;;;0.70;1.00;;;;;;6283764;22;20193;-77
2022/03/09 06:09:37;;;;;;;40.70;32.00;;;0.70;1.00;;;;;;6286002;22;20187;-77
2022/03/09 06:12:05;;;;;;;35.45;31.02;;;0.80;1.00;;;;;;6288452;22;20239;-77
2022/03/09 06:14:32;;;;;;;37.53;31.58;;;0.80;1.00;;;;;;6287586;22;20189;-77
2022/03/09 06:16:58;;;;;;;39.00;32.88;;;0.90;1.00;;;;;;6285647;22;20666;-77
2022/03/09 06:19:25;;;;;;;39.03;31.45;;;0.90;1.00;;;;;;6282403;22;20297;-76
2022/03/09 06:21:52;;;;;;;81.07;58.58;;;0.90;1.00;;;;;;6283704;22;20195;-77
2022/03/09 06:24:20;;;;;;;43.42;31.33;;;1.00;1.00;;;;;;6287070;22;20244;-77
2022/03/09 06:26:46;;;;;;;41.22;32.42;;;1.00;1.00;;;;;;6285574;22;20212;-79
2022/03/09 06:29:14;;;;;;;41.75;30.98;;;1.10;1.00;;;;;;6284378;22;20243;-77
2022/03/09 06:31:42;;;;;;;41.92;29.67;;;1.10;1.00;;;;;;6288918;22;20193;-78
2022/03/09 06:34:09;;;;;;;48.05;33.83;;;1.20;1.00;;;;;;6289092;22;20332;-79
2022/03/09 06:36:36;;;;;;;50.92;33.05;;;1.20;1.00;;;;;;6282338;22;21546;-77
2022/03/09 06:39:06;;;;;;;40.83;32.30;;;1.30;1.00;;;;;;6276881;22;20441;-78
2022/03/09 06:41:34;;;;;;;43.55;35.50;;;1.40;1.00;;;;;;6275251;22;20196;-78
2022/03/09 06:44:02;;;;;;;46.75;36.58;;;1.40;1.00;;;;;;6280780;22;20189;-80
2022/03/09 06:46:28;;;;;;;40.83;32.55;;;1.50;1.00;;;;;;6281625;22;21103;-79
2022/03/09 06:48:55;;;;;;;42.13;34.03;;;1.60;1.00;;;;;;6285662;22;20200;-79
2022/03/09 06:51:22;;;;;;;47.30;33.95;;;1.70;1.00;;;;;;6283447;22;20184;-79
2022/03/09 06:53:49;;;;;;;41.45;31.08;;;1.90;1.00;;;;;;6289269;22;20184;-79
2022/03/09 06:56:18;;;;;;;44.15;36.10;;;1.90;1.00;;;;;;6298131;22;20228;-79
2022/03/09 06:58:46;;;;;;;48.95;31.95;;;2.10;1.00;;;;;;6284660;22;20252;-80
2022/03/09 07:01:13;;;;;;;41.90;32.70;;;2.20;1.00;;;;;;6279612;22;20231;-77
2022/03/09 07:03:40;;;;;;;48.47;34.05;;;2.30;1.00;;;;;;6273430;22;20192;-79
2022/03/09 07:06:07;;;;;;;40.78;32.08;;;2.40;1.00;;;;;;6277059;22;20193;-78
2022/03/09 07:08:34;;;;;;;42.38;32.53;;;2.50;1.00;;;;;;6278557;22;20207;-79
2022/03/09 07:11:00;;;;;;;46.92;32.72;;;2.70;1.00;;;;;;6276709;22;20184;-77
2022/03/09 07:13:29;;;;;;;42.72;31.90;;;2.80;1.00;;;;;;6272900;22;20199;-78
2022/03/09 07:15:57;;;;;;;44.15;30.67;;;3.00;1.00;;;;;;6276426;22;20200;-77
2022/03/09 07:18:24;;;;;;;44.15;31.17;;;3.30;1.00;;;;;;6272963;22;20196;-77
2022/03/09 07:20:51;;;;;;;33.42;28.50;;;3.50;1.00;;;;;;6272380;22;20215;-76
2022/03/09 07:23:17;;;;;;;38.58;31.80;;;3.70;1.00;;;;;;6273710;22;20692;-77
2022/03/09 07:25:45;;;;;;;35.00;30.10;;;3.90;1.00;;;;;;6273141;22;20200;-77
2022/03/09 07:28:12;;;;;;;33.85;30.25;;;4.10;1.00;;;;;;6273967;22;20248;-77
2022/03/09 07:30:39;;;;;;;37.97;28.63;;;4.20;1.00;;;;;;6271522;22;20215;-77
2022/03/09 07:33:07;;;;;;;35.15;28.70;;;4.30;1.00;;;;;;6274192;22;21120;-75
2022/03/09 07:35:33;;;;;;;33.72;29.30;;;4.40;1.00;;;;;;6279514;22;20196;-76
2022/03/09 07:38:00;;;;;;;30.67;26.70;;;4.50;1.00;;;;;;6279340;22;20203;-77
2022/03/09 07:40:27;;;;;;;36.60;27.33;;;4.70;1.00;;;;;;6274345;22;20287;-76
2022/03/09 07:42:53;;;;;;;38.90;28.15;;;4.80;1.00;;;;;;6276038;22;20208;-76
2022/03/09 07:45:20;;;;;;;38.03;29.10;;;4.90;1.00;;;;;;6275477;22;20279;-78
2022/03/09 07:47:47;;;;;;;34.42;27.80;;;5.10;1.00;;;;;;6273505;22;21245;-75
2022/03/09 07:50:15;;;;;;;37.05;30.05;;;5.30;1.00;;;;;;6278539;22;20184;-77
2022/03/09 07:52:42;;;;;;;32.28;28.77;;;5.40;1.00;;;;;;6275673;22;20189;-77
2022/03/09 07:55:10;;;;;;;32.30;26.83;;;5.60;1.00;;;;;;6272941;22;20278;-76
2022/03/09 07:57:37;;;;;;;29.98;26.60;;;5.80;1.00;;;;;;6274860;22;20978;-77
2022/03/09 08:00:05;;;;;;;29.92;26.55;;;6.00;1.00;;;;;;6276159;22;20200;-76
2022/03/09 08:02:31;;;;;;;35.35;27.52;;;6.10;1.00;;;;;;6275931;22;20192;-77
2022/03/09 08:04:58;;;;;;;40.25;26.92;;;6.30;1.00;;;;;;6277470;22;20203;-76
2022/03/09 08:07:26;;;;;;;29.45;24.73;;;6.40;1.00;;;;;;6276264;22;20275;-76
2022/03/09 08:09:53;;;;;;;34.47;27.00;;;6.60;1.00;;;;;;6274158;22;20193;-76
2022/03/09 08:12:19;;;;;;;38.85;28.65;;;6.70;1.00;;;;;;6274869;22;20202;-77
2022/03/09 08:14:46;;;;;;;39.38;27.17;;;6.90;1.00;;;;;;6274861;22;20251;-76
2022/03/09 08:17:13;;;;;;;32.33;24.15;;;7.10;1.00;;;;;;6277050;22;20199;-78
2022/03/09 08:19:40;;;;;;;31.98;23.73;;;7.20;1.00;;;;;;6275772;22;20192;-76
2022/03/09 08:22:07;;;;;;;32.63;24.60;;;7.40;1.00;;;;;;6274717;22;20193;-77
2022/03/09 08:24:36;;;;;;;26.80;23.17;;;7.60;1.00;;;;;;6278177;22;20247;-77
2022/03/09 08:27:03;;;;;;;25.70;22.67;;;7.80;1.00;;;;;;6284574;22;20189;-78
2022/03/09 08:29:30;;;;;;;25.30;18.88;;;8.00;1.00;;;;;;6281050;22;20193;-77
2022/03/09 08:31:57;;;;;;;15.20;11.55;;;8.10;1.00;;;;;;6277101;22;20199;-77
2022/03/09 08:34:24;;;;;;;13.77;9.10;;;8.30;1.00;;;;;;6279431;22;20224;-78
2022/03/09 08:36:51;;;;;;;10.98;8.93;;;8.50;1.00;;;;;;6279620;22;20466;-76
2022/03/09 08:39:18;;;;;;;12.43;10.73;;;8.60;1.00;;;;;;6275382;22;20216;-77
2022/03/09 08:41:46;;;;;;;15.88;11.77;;;8.80;1.00;;;;;;6277190;22;20573;-77
2022/03/09 08:44:15;;;;;;;18.23;11.13;;;9.00;1.00;;;;;;6277535;22;20235;-77
2022/03/09 08:46:42;;;;;;;15.60;12.55;;;9.10;1.00;;;;;;6279366;22;20429;-77
2022/03/09 08:49:09;;;;;;;16.40;13.10;;;9.30;1.00;;;;;;6279160;22;20227;-77
2022/03/09 08:51:37;;;;;;;16.70;11.98;;;9.40;1.00;;;;;;6278708;22;20196;-77
2022/03/09 08:54:04;;;;;;;14.00;12.53;;;9.70;1.00;;;;;;6274737;22;20189;-77
2022/03/09 08:56:32;;;;;;;20.80;11.17;;;10.00;1.00;;;;;;6279081;22;20356;-77
2022/03/09 08:59:00;;;;;;;11.03;9.80;;;10.50;1.00;;;;;;6277221;22;20424;-77
2022/03/09 09:01:27;;;;;;;12.57;10.07;;;11.20;1.00;;;;;;6277810;22;20428;-78
2022/03/09 09:03:54;;;;;;;13.80;10.80;;;12.00;1.00;;;;;;6276954;22;21044;-78
2022/03/09 09:06:20;;;;;;;13.10;10.47;;;13.20;1.00;;;;;;6275974;22;20462;-77
2022/03/09 09:08:47;;;;;;;13.83;10.20;;;14.70;1.00;;;;;;6276269;22;21157;-77
2022/03/09 09:11:14;;;;;;;17.10;9.60;;;16.00;1.00;;;;;;6277410;22;21113;-75
2022/03/09 09:13:41;;;;;;;12.40;9.13;;;17.30;1.00;;;;;;6273289;22;20376;-76
2022/03/09 09:16:09;;;;;;;11.70;9.27;;;18.10;1.00;;;;;;6278751;22;20450;-77
2022/03/09 09:18:36;;;;;;;12.37;9.43;;;18.70;1.00;;;;;;6274526;22;20383;-76
2022/03/09 09:21:03;;;;;;;9.73;7.50;;;19.40;1.00;;;;;;6275856;22;20447;-75
2022/03/09 09:23:30;;;;;;;9.30;8.30;;;19.70;1.00;;;;;;6278204;22;20458;-77
2022/03/09 09:25:57;;;;;;;10.73;8.37;;;19.90;1.00;;;;;;6295550;22;20374;-76
2022/03/09 09:28:23;;;;;;;12.90;9.23;;;20.40;1.00;;;;;;6282896;22;20412;-77
2022/03/09 09:30:50;;;;;;;9.43;7.83;;;20.70;1.00;;;;;;6273742;22;21071;-77
2022/03/09 09:33:18;;;;;;;17.40;9.83;;;21.50;1.00;;;;;;6274263;22;20820;-77
2022/03/09 09:35:48;;;;;;;8.93;8.03;;;21.90;1.00;;;;;;6277091;22;21141;-77
2022/03/09 09:38:15;;;;;;;9.33;7.77;;;22.20;1.00;;;;;;6275745;22;20531;-77
2022/03/09 09:40:45;;;;;;;10.20;7.43;;;22.40;1.00;;;;;;6276474;22;20499;-77
2022/03/09 09:43:13;;;;;;;8.30;7.37;;;23.00;1.00;;;;;;6274935;22;21089;-76
2022/03/09 09:45:42;;;;;;;9.47;7.27;;;23.60;1.00;;;;;;6277903;22;20491;-75
2022/03/09 09:48:13;;;;;;;13.00;8.10;;;24.20;1.00;;;;;;6273658;22;20415;-77
2022/03/09 09:50:43;;;;;;;8.07;7.27;;;24.10;1.00;;;;;;6276213;22;20428;-76
2022/03/09 09:53:13;;;;;;;9.90;7.00;;;24.20;1.00;;;;;;6276291;22;21322;-76
2022/03/09 09:55:41;;;;;;;8.70;7.80;;;24.30;1.00;;;;;;6275983;22;20759;-77
2022/03/09 09:58:09;;;;;;;10.00;8.30;;;24.60;1.00;;;;;;6273985;22;20416;-77
2022/03/09 10:00:39;;;;;;;14.77;13.23;;;24.80;1.00;;;;;;6276257;22;20392;-76
2022/03/09 10:03:06;;;;;;;16.43;9.03;;;24.90;1.00;;;;;;6274061;22;20409;-77
2022/03/09 10:05:34;;;;;;;9.10;7.70;;;25.10;1.00;;;;;;6278937;22;20384;-76
2022/03/09 10:08:18;;;;;;;11.20;7.53;;;25.00;1.00;;;;;;6276085;22;20410;-77
2022/03/09 10:10:55;;;;;;;10.97;8.57;;;25.20;1.00;;;;;;6275585;22;20407;-76
2022/03/09 10:13:24;;;;;;;11.07;6.77;;;25.40;1.00;;;;;;6284888;22;20392;-77
2022/03/09 10:16:08;;;;;;;9.33;7.03;;;25.90;1.00;;;;;;6289822;22;20439;-76
2022/03/09 10:18:35;;;;;;;9.33;6.90;;;25.90;1.00;;;;;;6293414;22;20394;-76
2022/03/09 10:21:10;;;;;;;11.80;8.40;;;25.30;1.00;;;;;;6293161;22;20427;-76
2022/03/09 10:23:51;;;;;;;18.67;9.17;;;24.80;1.00;;;;;;6296909;22;20358;-77
2022/03/09 10:26:18;;;;;;;13.23;9.10;;;24.50;1.00;;;;;;6295162;22;20430;-77
2022/03/09 10:28:59;;;;;;;8.87;6.57;;;24.70;1.00;;;;;;6282522;22;20458;-77
2022/03/09 10:31:37;;;;;;;8.17;7.37;;;25.00;1.00;;;;;;6281338;22;20448;-76
2022/03/09 10:34:05;;;;;;;7.83;6.27;;;24.40;1.00;;;;;;6278618;22;20423;-76
2022/03/09 10:36:32;;;;;;;8.90;7.13;;;24.40;1.00;;;;;;6283975;22;20429;-75
2022/03/09 10:39:12;;;;;;;8.60;6.73;;;24.70;1.00;;;;;;6301554;22;20459;-76
2022/03/09 10:42:23;;;;;;;12.00;7.10;;;25.70;1.00;;;;;;6304206;22;20394;-77
2022/03/09 10:44:51;;;;;;;9.40;8.07;;;26.60;1.00;;;;;;6303879;22;20378;-76
2022/03/09 10:47:29;;;;;;;14.47;7.23;;;25.90;1.00;;;;;;6305736;22;20375;-76
2022/03/09 10:50:12;;;;;;;13.60;10.40;;;25.60;1.00;;;;;;6303627;22;20405;-77
2022/03/09 10:52:49;;;;;;;15.80;8.93;;;26.20;1.00;;;;;;6307138;22;20422;-77
2022/03/09 10:55:30;;;;;;;8.33;7.53;;;26.70;1.00;;;;;;6306137;22;20406;-76
2022/03/09 10:58:12;;;;;;;10.77;7.80;;;26.50;1.00;;;;;;6306959;22;20401;-77
2022/03/09 11:00:46;;;;;;;8.30;7.20;;;26.70;1.00;;;;;;6306428;22;20415;-76
2022/03/09 11:03:14;;;;;;;10.03;7.27;;;26.30;1.00;;;;;;6307607;22;20367;-76
2022/03/09 11:05:50;;;;;;;15.77;9.00;;;25.70;1.00;;;;;;6308650;22;20498;-76
2022/03/09 11:08:18;;;;;;;9.93;7.63;;;25.70;1.00;;;;;;6305576;22;20403;-77
2022/03/09 11:10:47;;;;;;;8.90;6.93;;;26.40;1.00;;;;;;6305694;22;20363;-77
2022/03/09 11:13:14;;;;;;;11.43;7.77;;;27.40;1.00;;;;;;6306159;22;20355;-76
2022/03/09 11:15:42;;;;;;;10.00;7.13;;;28.40;1.00;;;;;;6299025;22;20340;-78
2022/03/09 11:18:18;;;;;;;9.30;7.90;;;29.00;1.00;;;;;;6304297;22;20362;-85
2022/03/09 11:20:45;;;;;;;8.05;7.25;;;28.30;1.00;;;;;;6307529;22;20357;-84
2022/03/09 11:23:13;;;;;;;10.57;8.03;;;28.00;1.00;;;;;;6308709;22;20169;-84
2022/03/09 11:25:42;;;;;;;11.57;9.00;;;28.80;1.00;;;;;;6308917;22;20503;-84
2022/03/09 11:28:12;;;;;;;8.30;6.93;;;29.30;1.00;;;;;;6307885;22;20371;-86
2022/03/09 11:30:56;;;;;;;6.83;6.13;;;29.20;1.00;;;;;;6306729;22;20390;-85
2022/03/09 11:33:43;;;;;;;8.55;7.15;;;28.70;1.00;;;;;;6302376;22;20373;-85
2022/03/09 11:36:36;;;;;;;8.07;6.10;;;28.00;1.00;;;;;;6306264;22;20193;-87
2022/03/09 11:39:24;;;;;;;9.70;7.37;;;27.50;1.00;;;;;;6307804;22;20348;-84
2022/03/09 11:42:31;;;;;;;7.00;6.30;;;27.80;1.00;;;;;;6306510;22;20367;-86
2022/03/09 11:45:36;;;;;;;6.90;6.17;;;28.90;1.00;;;;;;6292144;22;20370;-87
2022/03/09 11:48:11;;;;;;;7.37;6.57;;;29.30;1.00;;;;;;6302916;22;20407;-86
2022/03/09 11:51:09;;;;;;;9.83;6.90;;;30.10;1.00;;;;;;6300336;22;20337;-85
2022/03/09 11:53:41;;;;;;;9.20;7.03;;;30.60;1.00;;;;;;6293184;22;20375;-86
2022/03/09 11:56:25;;;;;;;11.20;7.30;;;30.60;1.00;;;;;;6303375;22;20367;-85
2022/03/09 11:59:09;;;;;;;8.40;6.90;;;30.30;1.00;;;;;;6305073;22;20399;-86
2022/03/09 12:02:24;;;;;;;8.37;7.17;;;30.40;1.00;;;;;;6303348;22;20352;-86
2022/03/09 12:05:06;;;;;;;7.83;6.90;;;30.60;1.00;;;;;;6299539;22;20409;-84
2022/03/09 12:07:57;;;;;;;8.27;6.63;;;30.60;1.00;;;;;;6294423;22;20352;-86
2022/03/09 12:10:43;;;;;;;7.77;6.97;;;30.60;1.00;;;;;;6295498;22;20384;-85
2022/03/09 12:13:20;;;;;;;9.87;7.30;;;30.60;1.00;;;;;;6295505;22;20400;-86
2022/03/09 12:16:15;;;;;;;7.97;6.63;;;31.20;1.00;;;;;;6291143;22;20474;-87
2022/03/09 12:18:49;;;;;;;9.47;8.00;;;31.20;1.00;;;;;;6290151;22;20394;-85
2022/03/09 12:21:19;;;;;;;8.50;7.20;;;31.10;1.00;;;;;;6298272;22;20360;-85
2022/03/09 12:24:39;;;;;;;10.52;9.25;;;30.50;1.00;;;;;;6285336;22;20397;-85
2022/03/09 12:27:29;;;;;;;8.93;7.47;;;30.00;1.00;;;;;;6290446;22;20221;-87
2022/03/09 12:29:57;;;;;;;9.57;8.37;;;30.80;1.00;;;;;;6289105;22;20386;-85
2022/03/09 12:32:24;;;;;;;9.77;8.57;;;31.70;1.00;;;;;;6285734;22;20414;-85
2022/03/09 12:34:56;;;;;;;8.90;6.37;;;32.40;1.00;;;;;;6281720;22;20379;-87
2022/03/09 12:37:29;;;;;;;8.33;7.53;;;32.50;1.00;;;;;;6282124;22;20368;-86
2022/03/09 12:39:58;;;;;;;8.07;7.27;;;32.70;1.00;;;;;;6283339;22;20464;-86
2022/03/09 12:42:28;;;;;;;7.87;7.07;;;32.40;1.00;;;;;;6297420;22;20368;-85
2022/03/09 12:44:59;;;;;;;10.87;7.47;;;31.50;1.00;;;;;;6288481;22;20475;-86
2022/03/09 12:47:26;;;;;;;11.30;8.10;;;30.30;1.00;;;;;;6278931;22;20477;-85
2022/03/09 12:49:55;;;;;;;7.47;6.70;;;29.60;1.00;;;;;;6277641;22;20395;-88
2022/03/09 12:52:23;;;;;;;8.90;8.00;;;29.60;1.00;;;;;;6276033;22;20384;-86
2022/03/09 12:54:54;;;;;;;9.90;7.50;;;29.80;1.00;;;;;;6282152;22;20371;-84
2022/03/09 12:57:28;;;;;;;8.03;7.07;;;29.90;1.00;;;;;;6286623;22;20371;-86
2022/03/09 13:00:01;;;;;;;9.97;9.00;;;29.40;1.00;;;;;;6292450;22;20430;-85
2022/03/09 13:02:39;;;;;;;11.27;8.33;;;28.90;1.00;;;;;;6285881;22;20400;-86